| time (UTC) | temp F | wind direction | speed MPH | gust MPH | rain 1hr in | rain 24hr in | rain mn in | humidity % | barometer mb |
| 20260508033102 | 48 | 349 | 0.0 | 0.0 | 0.00 | 0.73 | 0.00 | 98 | 1001.7 |
| 20260508031601 | 48 | 349 | 0.0 | 0.0 | 0.00 | 0.73 | 0.00 | 98 | 1001.8 |
| 20260508030104 | 48 | 349 | 0.0 | 0.0 | 0.00 | 0.73 | 0.00 | 98 | 1001.8 |
| 20260508024619 | 49 | 349 | 0.0 | 0.0 | 0.00 | 0.73 | 0.73 | 98 | 1001.7 |
| 20260508023058 | 49 | 349 | 0.0 | 0.0 | 0.00 | 0.73 | 0.73 | 98 | 1001.4 |
| 20260508021606 | 49 | 350 | 0.0 | 0.0 | 0.00 | 0.73 | 0.73 | 98 | 1001.5 |
| 20260508020111 | 49 | 349 | 0.0 | 0.0 | 0.00 | 0.73 | 0.73 | 98 | 1001.6 |
| 20260508014558 | 49 | 349 | 0.0 | 0.0 | 0.00 | 0.73 | 0.73 | 98 | 1001.7 |
| 20260508013058 | 47 | 350 | 0.0 | 0.0 | 0.00 | 0.73 | 0.73 | 98 | 1001.5 |
| 20260508011606 | 47 | 350 | 0.0 | 0.0 | 0.00 | 0.73 | 0.73 | 97 | 1001.3 |
| 20260508010058 | 47 | 346 | 0.0 | 0.0 | 0.00 | 0.73 | 0.73 | 97 | 1001.8 |
| 20260508004601 | 47 | 196 | 0.0 | 0.0 | 0.00 | 0.73 | 0.73 | 97 | 1001.8 |
| 20260508003058 | 47 | 196 | 0.0 | 0.0 | 0.00 | 0.73 | 0.73 | 97 | 1001.5 |
| 20260508001558 | 46 | 198 | 0.0 | 0.0 | 0.00 | 0.73 | 0.73 | 97 | 1001.5 |
| 20260508000058 | 47 | 355 | 0.0 | 0.0 | 0.00 | 0.73 | 0.73 | 97 | 1001.9 |
| 20260507234559 | 47 | 340 | 0.0 | 0.0 | 0.00 | 0.73 | 0.73 | 97 | 1001.8 |
| 20260507233101 | 47 | 360 | 0.0 | 1.0 | 0.00 | 0.73 | 0.73 | 96 | 1001.9 |
| 20260507231600 | 48 | 344 | 0.0 | 0.0 | 0.00 | 0.73 | 0.73 | 96 | 1002.5 |
| 20260507230110 | 48 | 216 | 0.0 | 0.0 | 0.00 | 0.73 | 0.73 | 96 | 1002.1 |
| 20260507224559 | 49 | 211 | 0.0 | 0.0 | 0.00 | 0.73 | 0.73 | 96 | 1002.5 |
| 20260507223058 | 50 | 9 | 0.0 | 1.0 | 0.00 | 0.73 | 0.73 | 96 | 1002.2 |
| 20260507221600 | 50 | 10 | 0.0 | 0.0 | 0.00 | 0.73 | 0.73 | 96 | 1002.5 |
| 20260507220100 | 50 | 10 | 0.0 | 1.0 | 0.00 | 0.73 | 0.73 | 97 | 1002.6 |
| 20260507214559 | 49 | 15 | 0.0 | 1.0 | 0.03 | 0.73 | 0.73 | 97 | 1002.4 |
| 20260507213059 | 47 | 355 | 0.0 | 1.0 | 0.07 | 0.73 | 0.73 | 96 | 1002.0 |
| 20260507211604 | 47 | 180 | 0.0 | 2.0 | 0.13 | 0.73 | 0.73 | 96 | 1001.8 |
| 20260507210111 | 47 | 360 | 0.0 | 2.0 | 0.18 | 0.72 | 0.72 | 96 | 1002.4 |
| 20260507204601 | 48 | 11 | 0.0 | 2.0 | 0.24 | 0.70 | 0.70 | 96 | 1003.3 |
| 20260507203129 | 48 | 360 | 0.0 | 2.0 | 0.32 | 0.65 | 0.65 | 95 | 1003.6 |
| 20260507201558 | 50 | 284 | 0.0 | 2.0 | 0.35 | 0.59 | 0.59 | 96 | 1003.9 |
| 20260507194618 | 51 | 5 | 0.0 | 1.0 | 0.31 | 0.44 | 0.44 | 96 | 1004.6 |
| 20260507193103 | 49 | 355 | 0.0 | 1.0 | 0.25 | 0.32 | 0.32 | 95 | 1004.4 |
| 20260507191558 | 51 | 350 | 0.0 | 2.0 | 0.18 | 0.24 | 0.24 | 95 | 1004.5 |
| 20260507184558 | 51 | 347 | 1.0 | 10.0 | 0.08 | 0.13 | 0.13 | 94 | 1004.9 |
| 20260507183058 | 52 | 331 | 0.0 | 3.0 | 0.02 | 0.07 | 0.07 | 93 | 1005.1 |
| 20260507181559 | 52 | 200 | 0.0 | 6.0 | 0.00 | 0.06 | 0.06 | 93 | 1004.6 |
| 20260507180058 | 53 | 327 | 0.0 | 9.0 | 0.00 | 0.06 | 0.06 | 92 | 1004.8 |
| 20260507174603 | 53 | 28 | 2.0 | 9.0 | 0.00 | 0.06 | 0.06 | 91 | 1004.7 |
| 20260507173131 | 54 | 19 | 0.0 | 8.0 | 0.00 | 0.06 | 0.06 | 92 | 1005.1 |
| 20260507171600 | 52 | 16 | 0.0 | 6.0 | 0.00 | 0.06 | 0.06 | 92 | 1005.4 |
| 20260507164559 | 52 | 181 | 0.0 | 2.0 | 0.00 | 0.06 | 0.06 | 91 | 1006.1 |
| 20260507163059 | 54 | 5 | 0.0 | 4.0 | 0.00 | 0.06 | 0.06 | 91 | 1006.5 |
| 20260507161612 | 54 | 173 | 1.0 | 10.0 | 0.00 | 0.06 | 0.06 | 90 | 1007.0 |
| 20260507160104 | 55 | 90 | 1.0 | 11.0 | 0.00 | 0.06 | 0.06 | 91 | 1007.4 |
| 20260507154558 | 55 | 16 | 0.0 | 9.0 | 0.00 | 0.06 | 0.06 | 91 | 1007.6 |
| 20260507153100 | 54 | 15 | 0.0 | 6.0 | 0.00 | 0.06 | 0.06 | 92 | 1008.0 |
| 20260507151603 | 54 | 9 | 0.0 | 4.0 | 0.00 | 0.06 | 0.06 | 93 | 1008.5 |
| 20260507150058 | 54 | 12 | 1.0 | 10.0 | 0.00 | 0.06 | 0.06 | 93 | 1008.5 |
| 20260507144617 | 53 | 11 | 0.0 | 3.0 | 0.00 | 0.06 | 0.06 | 94 | 1008.9 |
| 20260507143103 | 53 | 5 | 0.0 | 9.0 | 0.00 | 0.06 | 0.06 | 94 | 1009.5 |
| 20260507141603 | 53 | 9 | 0.0 | 8.0 | 0.00 | 0.06 | 0.06 | 94 | 1009.9 |
| 20260507140106 | 53 | 17 | 0.0 | 6.0 | 0.00 | 0.06 | 0.06 | 94 | 1010.1 |
| 20260507134559 | 53 | 5 | 1.0 | 11.0 | 0.00 | 0.06 | 0.06 | 95 | 1010.1 |
| 20260507133144 | 53 | 355 | 0.0 | 4.0 | 0.00 | 0.06 | 0.06 | 96 | 1010.3 |
| 20260507131559 | 51 | 19 | 0.0 | 6.0 | 0.00 | 0.06 | 0.06 | 96 | 1010.1 |
| 20260507130107 | 51 | 262 | 0.0 | 8.0 | 0.00 | 0.06 | 0.06 | 96 | 1010.0 |
| 20260507124606 | 50 | 5 | 0.0 | 2.0 | 0.00 | 0.06 | 0.06 | 96 | 1010.3 |
| 20260507123058 | 52 | 355 | 0.0 | 9.0 | 0.00 | 0.06 | 0.06 | 95 | 1010.4 |
| 20260507121602 | 52 | 27 | 0.0 | 2.0 | 0.00 | 0.06 | 0.06 | 96 | 1010.8 |
| 20260507114611 | 52 | 12 | 0.0 | 2.0 | 0.00 | 0.06 | 0.06 | 97 | 1011.8 |
| 20260507113058 | 51 | 360 | 0.0 | 2.0 | 0.00 | 0.06 | 0.06 | 97 | 1011.9 |
| 20260507111606 | 50 | 12 | 0.0 | 1.0 | 0.00 | 0.06 | 0.06 | 97 | 1011.8 |
| 20260507110101 | 50 | 11 | 0.0 | 2.0 | 0.00 | 0.06 | 0.06 | 97 | 1011.9 |
| 20260507104601 | 50 | 350 | 0.0 | 10.0 | 0.00 | 0.06 | 0.06 | 97 | 1011.9 |
| 20260507103059 | 50 | 5 | 0.0 | 2.0 | 0.01 | 0.06 | 0.06 | 97 | 1012.6 |
| 20260507101601 | 49 | 14 | 0.0 | 2.0 | 0.01 | 0.06 | 0.06 | 97 | 1012.0 |
| 20260507100058 | 49 | 15 | 0.0 | 0.0 | 0.02 | 0.06 | 0.06 | 96 | 1012.1 |
| 20260507094602 | 50 | 360 | 0.0 | 1.0 | 0.03 | 0.06 | 0.06 | 97 | 1012.6 |
| 20260507093058 | 50 | 10 | 0.0 | 2.0 | 0.03 | 0.05 | 0.05 | 97 | 1012.8 |
| 20260507091600 | 50 | 5 | 0.0 | 1.0 | 0.03 | 0.05 | 0.05 | 97 | 1012.6 |
| 20260507090105 | 51 | 355 | 0.0 | 0.0 | 0.03 | 0.04 | 0.04 | 97 | 1012.8 |
| 20260507084601 | 51 | 13 | 0.0 | 0.0 | 0.02 | 0.02 | 0.02 | 97 | 1012.9 |
| 20260507083059 | 49 | 13 | 0.0 | 0.0 | 0.02 | 0.02 | 0.02 | 96 | 1012.9 |
| 20260507081558 | 49 | 13 | 0.0 | 1.0 | 0.02 | 0.02 | 0.02 | 96 | 1012.9 |
| 20260507080100 | 50 | 355 | 0.0 | 0.0 | 0.00 | 0.00 | 0.00 | 96 | 1013.2 |
| 20260507074601 | 50 | 360 | 0.0 | 0.0 | 0.00 | 0.00 | 0.00 | 96 | 1013.6 |
| 20260507073108 | 50 | 360 | 0.0 | 0.0 | 0.00 | 0.00 | 0.00 | 96 | 1013.8 |
| 20260507071558 | 51 | 9 | 0.0 | 1.0 | 0.00 | 0.00 | 0.00 | 96 | 1014.1 |
| 20260507070105 | 50 | 13 | 0.0 | 1.0 | 0.00 | 0.00 | 0.00 | 96 | 1014.0 |
| 20260507064559 | 49 | 360 | 0.0 | 0.0 | 0.00 | 0.00 | 0.00 | 95 | 1014.1 |
| 20260507063101 | 50 | 355 | 0.0 | 1.0 | 0.00 | 0.00 | 0.00 | 95 | 1014.2 |
| 20260507061559 | 50 | 360 | 0.0 | 1.0 | 0.00 | 0.00 | 0.00 | 95 | 1014.4 |
| 20260507054559 | 51 | 17 | 0.0 | 0.0 | 0.00 | 0.00 | 0.00 | 95 | 1014.7 |
| 20260507053125 | 52 | 11 | 0.0 | 1.0 | 0.00 | 0.00 | 0.00 | 95 | 1014.9 |
| 20260507051559 | 52 | 355 | 0.0 | 3.0 | 0.00 | 0.00 | 0.00 | 95 | 1015.3 |
| 20260507050058 | 52 | 5 | 0.0 | 1.0 | 0.00 | 0.00 | 0.00 | 95 | 1015.6 |
| 20260507044622 | 53 | 5 | 0.0 | 2.0 | 0.00 | 0.00 | 0.00 | 95 | 1015.7 |
| 20260507043059 | 53 | 9 | 0.0 | 1.0 | 0.00 | 0.00 | 0.00 | 95 | 1016.1 |
| 20260507041558 | 53 | 163 | 0.0 | 2.0 | 0.00 | 0.00 | 0.00 | 95 | 1016.2 |
| 20260507040105 | 53 | 360 | 0.0 | 2.0 | 0.00 | 0.00 | 0.00 | 95 | 1016.4 |
| 20260507034603 | 52 | 327 | 0.0 | 1.0 | 0.00 | 0.00 | 0.00 | 94 | 1016.6 |